createdAt,value
2019-03-08T00:00:33.757Z,11.00
2019-03-08T00:03:02.607Z,11.00
2019-03-08T00:05:31.207Z,12.85
2019-03-08T00:07:59.730Z,15.75
2019-03-08T00:10:28.446Z,13.58
2019-03-08T00:12:57.047Z,13.20
2019-03-08T00:15:26.454Z,15.08
2019-03-08T00:17:55.243Z,14.55
2019-03-08T00:20:23.772Z,16.62
2019-03-08T00:22:52.297Z,15.03
2019-03-08T00:25:20.942Z,15.70
2019-03-08T00:27:49.614Z,14.55
2019-03-08T00:30:18.283Z,16.02
2019-03-08T00:32:46.846Z,13.40
2019-03-08T00:35:15.460Z,16.05
2019-03-08T00:37:43.989Z,13.50
2019-03-08T00:40:14.029Z,11.28
2019-03-08T00:42:42.686Z,13.65
2019-03-08T00:45:18.014Z,14.33
2019-03-08T00:47:46.606Z,12.82
2019-03-08T00:50:15.213Z,12.55
2019-03-08T00:52:43.765Z,13.32
2019-03-08T00:55:13.539Z,12.68
2019-03-08T00:57:42.640Z,13.08
2019-03-08T01:00:19.939Z,12.93
2019-03-08T01:02:48.604Z,12.98
2019-03-08T01:05:17.571Z,14.10
2019-03-08T01:07:46.268Z,13.30
2019-03-08T01:10:20.413Z,11.78
2019-03-08T01:12:49.116Z,14.15
2019-03-08T01:15:18.222Z,13.30
2019-03-08T01:17:47.655Z,13.58
2019-03-08T01:20:18.130Z,13.68
2019-03-08T01:22:46.860Z,9.73
2019-03-08T01:25:15.622Z,10.07
2019-03-08T01:28:10.204Z,9.83
2019-03-08T01:30:40.259Z,10.82
2019-03-08T01:33:08.958Z,8.85
2019-03-08T01:35:37.752Z,10.37
2019-03-08T01:38:06.414Z,11.43
2019-03-08T01:40:35.006Z,11.63
2019-03-08T01:43:04.011Z,9.48
2019-03-08T01:45:32.602Z,11.00
2019-03-08T01:48:01.377Z,10.30
2019-03-08T01:50:30.090Z,9.23
2019-03-08T01:52:58.688Z,10.63
2019-03-08T01:55:27.286Z,7.62
2019-03-08T01:57:55.916Z,8.65
2019-03-08T02:00:24.588Z,10.80
2019-03-08T02:02:53.259Z,11.97
2019-03-08T02:05:22.378Z,8.45
2019-03-08T02:07:51.039Z,9.88
2019-03-08T02:10:19.711Z,11.83
2019-03-08T02:12:48.263Z,9.25
2019-03-08T02:15:18.233Z,8.10
2019-03-08T02:17:46.763Z,9.08
2019-03-08T02:20:18.749Z,8.80
2019-03-08T02:22:47.343Z,9.30
2019-03-08T02:25:16.006Z,8.08
2019-03-08T02:27:44.986Z,9.80
2019-03-08T02:30:15.534Z,12.75
2019-03-08T02:32:44.388Z,10.65
2019-03-08T02:35:13.687Z,10.80
2019-03-08T02:37:42.292Z,14.15
2019-03-08T02:40:30.697Z,10.93
2019-03-08T02:42:59.867Z,9.00
2019-03-08T02:45:28.455Z,9.38
2019-03-08T02:47:57.089Z,9.75
2019-03-08T02:50:25.852Z,9.53
2019-03-08T02:52:54.366Z,9.10
2019-03-08T02:55:23.015Z,9.30
2019-03-08T02:57:51.980Z,9.23
2019-03-08T03:00:20.655Z,8.83
2019-03-08T03:02:49.320Z,8.33
2019-03-08T03:05:17.983Z,9.08
2019-03-08T03:07:46.658Z,10.25
2019-03-08T03:10:15.282Z,10.63
2019-03-08T03:12:43.815Z,10.48
2019-03-08T03:15:14.293Z,10.38
2019-03-08T03:17:42.916Z,9.43
2019-03-08T03:20:13.576Z,8.68
2019-03-08T03:22:42.159Z,7.80
2019-03-08T03:25:15.554Z,8.18
2019-03-08T03:27:44.159Z,9.28
2019-03-08T03:30:15.698Z,8.48
2019-03-08T03:32:44.336Z,7.37
2019-03-08T03:35:12.968Z,8.70
2019-03-08T03:37:41.535Z,7.62
2019-03-08T03:40:12.499Z,9.38
2019-03-08T03:42:41.096Z,8.83
2019-03-08T03:45:12.169Z,10.20
2019-03-08T03:47:40.876Z,17.67
2019-03-08T03:50:11.345Z,19.37
2019-03-08T03:52:40.145Z,13.05
2019-03-08T03:55:11.446Z,14.70
2019-03-08T03:57:39.985Z,9.93
2019-03-08T04:00:14.333Z,10.68
2019-03-08T04:02:42.973Z,10.78
2019-03-08T04:05:11.931Z,9.83
2019-03-08T04:07:40.527Z,9.58
2019-03-08T04:10:12.065Z,8.98
2019-03-08T04:12:40.722Z,9.28
2019-03-08T04:15:12.260Z,9.85
2019-03-08T04:17:40.823Z,11.38
2019-03-08T04:20:12.089Z,10.20
2019-03-08T04:22:40.686Z,9.75
2019-03-08T04:25:10.977Z,10.00
2019-03-08T04:27:39.527Z,9.40
2019-03-08T04:30:11.195Z,9.10
2019-03-08T04:32:39.863Z,8.75
2019-03-08T04:35:08.478Z,10.38
2019-03-08T04:37:36.998Z,8.95
2019-03-08T04:40:08.618Z,9.60
2019-03-08T04:42:37.139Z,10.72
2019-03-08T04:45:08.543Z,13.08
2019-03-08T04:47:37.093Z,14.18
2019-03-08T04:50:07.869Z,13.83
2019-03-08T04:52:36.411Z,15.93
2019-03-08T04:55:08.307Z,10.38
2019-03-08T04:57:36.916Z,10.40
2019-03-08T05:00:09.231Z,11.03
2019-03-08T05:02:37.787Z,8.78
2019-03-08T05:05:06.769Z,12.05
2019-03-08T05:07:35.541Z,12.45
2019-03-08T05:10:06.804Z,12.07
2019-03-08T05:12:35.256Z,10.65
2019-03-08T05:15:04.823Z,13.95
2019-03-08T05:17:33.332Z,11.85
2019-03-08T05:20:01.924Z,10.88
2019-03-08T05:22:30.454Z,12.28
2019-03-08T05:24:59.103Z,13.72
2019-03-08T05:27:28.358Z,14.20
2019-03-08T05:29:56.890Z,10.50
2019-03-08T05:32:25.458Z,12.50
2019-03-08T05:34:53.984Z,13.65
2019-03-08T05:37:22.511Z,12.65
2019-03-08T05:39:51.082Z,12.68
2019-03-08T05:42:19.612Z,12.47
2019-03-08T05:44:48.143Z,13.70
2019-03-08T05:47:16.710Z,14.70
2019-03-08T05:49:45.302Z,16.00
2019-03-08T05:52:13.842Z,12.35
2019-03-08T05:54:42.404Z,14.95
2019-03-08T05:57:10.926Z,13.38
2019-03-08T05:59:39.465Z,10.08
2019-03-08T06:02:08.044Z,13.72
2019-03-08T06:04:36.584Z,14.23
2019-03-08T06:07:05.115Z,11.55
2019-03-08T06:09:33.875Z,13.05
2019-03-08T06:12:02.376Z,13.20
2019-03-08T06:14:31.219Z,10.30
2019-03-08T06:16:59.780Z,12.47
2019-03-08T06:19:28.313Z,11.65
2019-03-08T06:21:56.912Z,12.25
2019-03-08T06:24:25.665Z,14.13
2019-03-08T06:26:54.280Z,12.80
2019-03-08T06:29:23.836Z,12.60
2019-03-08T06:31:52.406Z,11.25
2019-03-08T06:34:20.940Z,14.20
2019-03-08T06:36:49.472Z,11.08
2019-03-08T06:39:18.051Z,14.33
2019-03-08T06:41:46.639Z,12.50
2019-03-08T06:44:15.095Z,15.32
2019-03-08T06:46:43.953Z,13.60
2019-03-08T06:49:12.704Z,13.93
2019-03-08T06:51:41.412Z,14.00
2019-03-08T06:54:10.040Z,11.33
2019-03-08T06:56:38.578Z,13.40
2019-03-08T06:59:11.224Z,15.08
2019-03-08T07:01:45.693Z,11.60
2019-03-08T07:04:14.279Z,13.35
2019-03-08T07:06:42.912Z,15.60
2019-03-08T07:09:19.471Z,13.88
2019-03-08T07:11:48.284Z,16.40
2019-03-08T07:14:16.820Z,13.45
2019-03-08T07:16:45.701Z,14.03
2019-03-08T07:19:14.213Z,14.10
2019-03-08T07:21:44.375Z,17.15
2019-03-08T07:24:14.662Z,14.68
2019-03-08T07:26:45.192Z,12.63
2019-03-08T07:29:21.579Z,14.63
2019-03-08T07:32:00.736Z,15.80
2019-03-08T07:34:33.785Z,11.90
2019-03-08T07:37:13.057Z,14.23
2019-03-08T07:39:45.819Z,12.28
2019-03-08T07:42:21.692Z,9.65
2019-03-08T07:45:07.981Z,14.33
2019-03-08T07:47:56.331Z,11.97
2019-03-08T07:50:32.708Z,10.63
2019-03-08T07:53:08.983Z,10.95
2019-03-08T07:55:58.206Z,10.60
2019-03-08T07:58:33.925Z,11.55
2019-03-08T08:01:12.122Z,10.80
2019-03-08T08:04:07.644Z,9.65
2019-03-08T08:06:52.955Z,10.72
2019-03-08T08:09:28.758Z,9.95
2019-03-08T08:12:04.766Z,11.05
2019-03-08T08:14:51.470Z,10.78
2019-03-08T08:17:21.673Z,10.40
2019-03-08T08:20:16.167Z,11.55
2019-03-08T08:22:42.927Z,9.98
2019-03-08T08:25:47.532Z,11.48
2019-03-08T08:28:17.903Z,12.65
2019-03-08T08:30:57.400Z,11.00
2019-03-08T08:33:39.619Z,7.80
2019-03-08T08:36:09.800Z,9.50
2019-03-08T08:38:42.940Z,9.78
2019-03-08T08:41:29.584Z,11.73
2019-03-08T08:43:59.758Z,8.88
2019-03-08T08:46:30.151Z,7.95
2019-03-08T08:49:12.876Z,10.68
2019-03-08T08:51:55.075Z,9.03
2019-03-08T08:54:41.324Z,7.55
2019-03-08T08:57:17.700Z,7.78
2019-03-08T08:59:50.835Z,7.05
2019-03-08T09:02:20.935Z,6.62
2019-03-08T09:04:53.561Z,8.05
2019-03-08T09:07:26.611Z,8.63
2019-03-08T09:09:59.551Z,9.65
2019-03-08T09:12:47.671Z,9.20
2019-03-08T09:15:23.972Z,7.17
2019-03-08T09:18:09.648Z,9.48
2019-03-08T09:20:56.422Z,8.45
2019-03-08T09:23:32.612Z,6.58
2019-03-08T09:26:02.778Z,9.40
2019-03-08T09:28:36.046Z,6.70
2019-03-08T09:31:06.341Z,9.18
2019-03-08T09:33:36.897Z,9.43
2019-03-08T09:36:12.967Z,8.85
2019-03-08T09:38:43.162Z,8.58
2019-03-08T09:41:22.454Z,6.92
2019-03-08T09:46:34.503Z,6.85
2019-03-08T09:49:16.875Z,8.28
2019-03-08T09:51:47.226Z,6.15
2019-03-08T09:54:18.304Z,5.75
2019-03-08T09:56:48.583Z,7.85
2019-03-08T09:59:24.248Z,8.70
2019-03-08T10:01:57.104Z,6.90
2019-03-08T10:04:27.547Z,8.05
2019-03-08T10:07:00.442Z,6.17
2019-03-08T10:09:30.670Z,6.08
2019-03-08T10:12:00.874Z,8.65
2019-03-08T10:14:31.098Z,6.00
2019-03-08T10:17:01.463Z,6.30
2019-03-08T10:19:48.028Z,5.30
2019-03-08T10:22:18.207Z,5.65
2019-03-08T10:25:04.903Z,6.95
2019-03-08T10:27:53.689Z,6.67
2019-03-08T10:30:40.191Z,4.90
2019-03-08T10:33:25.479Z,7.03
2019-03-08T10:36:11.169Z,3.70
2019-03-08T10:38:41.605Z,6.83
2019-03-08T10:41:18.122Z,8.13
2019-03-08T10:43:54.135Z,5.25
2019-03-08T10:46:24.407Z,12.13
2019-03-08T10:49:11.059Z,6.03
2019-03-08T10:51:44.009Z,9.13
2019-03-08T10:54:29.446Z,5.83
2019-03-08T10:57:02.995Z,6.55
2019-03-08T10:59:45.484Z,3.98
2019-03-08T11:02:21.207Z,2.42
2019-03-08T11:05:06.848Z,9.63
2019-03-08T11:07:39.478Z,7.33
2019-03-08T11:10:12.863Z,9.60
2019-03-08T11:12:59.490Z,4.87
2019-03-08T11:15:35.695Z,5.20
2019-03-08T11:18:08.916Z,6.25
2019-03-08T11:20:46.432Z,7.10
2019-03-08T11:23:19.879Z,8.35
2019-03-08T11:26:06.540Z,5.85
2019-03-08T11:28:45.502Z,4.78
2019-03-08T11:31:31.897Z,6.75
2019-03-08T11:34:02.137Z,4.50
2019-03-08T11:36:35.022Z,6.00
2019-03-08T11:39:12.586Z,6.92
2019-03-08T11:41:42.844Z,7.08
2019-03-08T11:44:13.016Z,4.62
2019-03-08T11:46:43.229Z,6.58
2019-03-08T11:49:19.173Z,6.22
2019-03-08T11:51:55.581Z,6.00
2019-03-08T11:54:25.757Z,6.10
2019-03-08T11:57:11.263Z,8.48
2019-03-08T11:59:41.392Z,6.25
2019-03-08T12:02:20.530Z,6.42
2019-03-08T12:05:05.783Z,7.60
2019-03-08T12:07:35.983Z,5.67
2019-03-08T12:10:25.093Z,6.40
2019-03-08T12:12:55.295Z,5.42
2019-03-08T12:15:41.454Z,5.90
2019-03-08T12:18:27.792Z,6.15
2019-03-08T12:21:06.779Z,4.10
2019-03-08T12:23:52.263Z,4.92
2019-03-08T12:26:22.581Z,7.05
2019-03-08T12:28:52.719Z,7.45
2019-03-08T12:31:41.096Z,6.50
2019-03-08T12:34:26.215Z,5.60
2019-03-08T12:36:59.199Z,7.53
2019-03-08T12:39:29.807Z,6.10
2019-03-08T12:42:06.196Z,8.95
2019-03-08T12:44:36.425Z,5.10
2019-03-08T12:47:22.737Z,3.98
2019-03-08T12:50:09.240Z,5.03
2019-03-08T12:52:45.201Z,6.15
2019-03-08T12:55:30.868Z,9.90
2019-03-08T12:58:01.181Z,8.13
2019-03-08T13:00:49.425Z,5.37
2019-03-08T13:03:36.006Z,5.28
2019-03-08T13:06:12.058Z,5.80
2019-03-08T13:08:45.183Z,6.35
2019-03-08T13:11:13.650Z,5.20
2019-03-08T13:13:42.167Z,6.20
2019-03-08T13:16:11.044Z,12.53
2019-03-08T13:18:39.650Z,7.93
2019-03-08T13:21:08.195Z,6.10
2019-03-08T13:23:37.002Z,4.37
2019-03-08T13:26:05.686Z,8.10
2019-03-08T13:28:34.297Z,7.87
2019-03-08T13:31:03.065Z,4.95
2019-03-08T13:33:31.678Z,8.60
2019-03-08T13:36:00.248Z,6.22
2019-03-08T13:38:28.941Z,3.90
2019-03-08T13:40:59.059Z,7.20
2019-03-08T13:43:27.760Z,9.20
2019-03-08T13:45:56.686Z,6.70
2019-03-08T13:48:25.211Z,9.73
2019-03-08T13:50:53.749Z,5.28
2019-03-08T13:53:22.383Z,6.40
2019-03-08T13:55:50.987Z,5.47
2019-03-08T13:58:19.518Z,6.65
2019-03-08T14:00:48.301Z,5.63
2019-03-08T14:03:16.870Z,8.73
2019-03-08T14:05:45.421Z,5.15
2019-03-08T14:08:13.983Z,5.83
2019-03-08T14:10:42.458Z,5.80
2019-03-08T14:13:11.072Z,8.35
2019-03-08T14:15:39.828Z,12.10
2019-03-08T14:18:08.363Z,6.75
2019-03-08T14:20:37.040Z,5.65
2019-03-08T14:23:05.757Z,9.23
2019-03-08T14:25:34.283Z,6.37
2019-03-08T14:28:02.891Z,7.15
2019-03-08T14:30:45.228Z,7.60
2019-03-08T14:33:16.841Z,5.60
2019-03-08T14:35:45.471Z,7.60
2019-03-08T14:38:14.026Z,7.28
2019-03-08T14:40:44.581Z,6.55
2019-03-08T14:43:31.334Z,7.03
2019-03-08T14:48:54.910Z,8.35
2019-03-08T14:51:26.317Z,7.58
2019-03-08T14:53:54.853Z,6.30
2019-03-08T14:56:23.491Z,7.15
2019-03-08T14:58:51.953Z,8.55
2019-03-08T15:01:20.557Z,9.28
2019-03-08T15:03:49.123Z,10.75
2019-03-08T15:06:17.657Z,10.68
2019-03-08T15:08:46.407Z,8.50
2019-03-08T15:11:15.041Z,9.37
2019-03-08T15:13:43.815Z,11.30
2019-03-08T15:16:12.411Z,20.15
2019-03-08T15:18:40.988Z,19.23
2019-03-08T15:21:09.585Z,18.60
2019-03-08T15:23:38.247Z,17.30
2019-03-08T15:26:06.946Z,18.42
2019-03-08T15:28:35.480Z,18.37
2019-03-08T15:31:04.156Z,17.25
2019-03-08T15:33:32.735Z,10.50
2019-03-08T15:36:01.341Z,12.00
2019-03-08T15:38:30.650Z,14.60
2019-03-08T15:40:59.525Z,13.18
2019-03-08T15:43:28.214Z,11.10
2019-03-08T15:45:57.068Z,13.08
2019-03-08T15:48:25.711Z,13.62
2019-03-08T15:50:54.259Z,15.60
2019-03-08T15:53:22.789Z,15.53
2019-03-08T15:55:53.175Z,16.42
2019-03-08T15:58:21.807Z,15.98
2019-03-08T16:00:50.365Z,19.35
2019-03-08T16:03:18.991Z,23.12
2019-03-08T16:05:47.594Z,20.08
2019-03-08T16:08:16.191Z,26.48
2019-03-08T16:10:44.687Z,21.57
2019-03-08T16:13:13.366Z,19.05
2019-03-08T16:15:41.939Z,15.25
2019-03-08T16:18:10.471Z,18.67
2019-03-08T16:20:39.376Z,20.60
2019-03-08T16:23:08.504Z,16.10
2019-03-08T16:25:41.044Z,15.40
2019-03-08T16:28:07.344Z,18.37
2019-03-08T16:30:39.739Z,20.10
2019-03-08T16:33:31.814Z,15.93
2019-03-08T16:36:10.985Z,18.10
2019-03-08T16:38:43.812Z,15.80
2019-03-08T16:41:30.073Z,22.93
2019-03-08T16:44:06.196Z,16.27
2019-03-08T16:46:42.229Z,18.17
2019-03-08T16:49:24.208Z,15.28
2019-03-08T16:52:10.490Z,19.15
2019-03-08T16:54:56.767Z,14.40
2019-03-08T16:57:26.890Z,15.78
2019-03-08T17:00:00.031Z,13.90
2019-03-08T17:02:36.104Z,14.38
2019-03-08T17:05:10.238Z,15.53
2019-03-08T17:07:48.983Z,17.15
2019-03-08T17:10:19.148Z,17.83
2019-03-08T17:12:55.171Z,21.15
2019-03-08T17:15:25.355Z,22.22
2019-03-08T17:18:04.516Z,19.65
2019-03-08T17:20:50.943Z,19.62
2019-03-08T17:23:37.427Z,19.52
2019-03-08T17:26:13.337Z,15.98
2019-03-08T17:29:00.043Z,17.20
2019-03-08T17:31:30.299Z,18.95
2019-03-08T17:34:09.733Z,21.57
2019-03-08T17:36:49.121Z,22.98
2019-03-08T17:39:19.417Z,24.10
2019-03-08T17:41:55.344Z,26.00
2019-03-08T17:44:31.944Z,26.95
2019-03-08T17:47:18.245Z,26.25
2019-03-08T17:50:03.548Z,32.10
2019-03-08T17:52:40.144Z,28.60
2019-03-08T17:55:22.711Z,34.98
2019-03-08T17:57:52.892Z,31.45
2019-03-08T18:00:23.132Z,29.30
2019-03-08T18:03:09.654Z,31.62
2019-03-08T18:05:39.901Z,27.80
2019-03-08T18:08:28.106Z,32.73
2019-03-08T18:11:03.774Z,33.08
2019-03-08T18:13:33.919Z,25.68
2019-03-08T18:16:04.266Z,29.15
2019-03-08T18:18:34.527Z,33.73
2019-03-08T18:21:10.792Z,28.40
2019-03-08T18:23:40.977Z,30.05
2019-03-08T18:26:11.095Z,31.82
2019-03-08T18:28:43.887Z,32.75
2019-03-08T18:31:16.836Z,33.75
2019-03-08T18:33:46.978Z,29.60
2019-03-08T18:36:17.257Z,34.88
2019-03-08T18:38:47.893Z,32.20
2019-03-08T18:41:34.266Z,25.85
2019-03-08T18:44:07.163Z,25.72
2019-03-08T18:46:49.348Z,24.92
2019-03-08T18:49:28.478Z,22.17
2019-03-08T18:52:02.112Z,22.30
2019-03-08T18:54:32.578Z,21.45
2019-03-08T18:57:02.820Z,18.62
2019-03-08T18:59:35.843Z,20.43
2019-03-08T19:02:06.093Z,18.23
2019-03-08T19:04:36.263Z,17.55
2019-03-08T19:07:36.687Z,20.43
2019-03-08T19:10:10.100Z,19.15
2019-03-08T19:12:40.239Z,20.45
2019-03-08T19:15:15.175Z,20.75
2019-03-08T19:17:51.744Z,27.85
2019-03-08T19:20:22.052Z,24.92
2019-03-08T19:23:08.811Z,27.40
2019-03-08T19:25:50.885Z,24.87
2019-03-08T19:28:27.282Z,24.57
2019-03-08T19:31:00.239Z,28.40
2019-03-08T19:33:30.404Z,24.05
2019-03-08T19:36:06.463Z,22.40
2019-03-08T19:38:39.944Z,21.30
2019-03-08T19:41:48.016Z,21.45
2019-03-08T19:44:34.788Z,22.40
2019-03-08T19:47:05.067Z,21.77
2019-03-08T19:49:38.300Z,23.38
2019-03-08T19:52:08.524Z,27.15
2019-03-08T19:54:51.184Z,29.85
2019-03-08T19:57:36.252Z,28.90
2019-03-08T20:00:18.366Z,16.15
2019-03-08T20:02:48.556Z,16.30
2019-03-08T20:05:34.186Z,12.25
2019-03-08T20:08:22.356Z,13.13
2019-03-08T20:11:09.167Z,13.72
2019-03-08T20:13:39.340Z,11.90
2019-03-08T20:16:09.708Z,13.60
2019-03-08T20:21:27.695Z,13.55
2019-03-08T20:23:57.886Z,14.33
2019-03-08T20:26:28.526Z,15.32
2019-03-08T20:29:07.882Z,15.10
2019-03-08T20:31:38.040Z,15.53
2019-03-08T20:34:17.393Z,14.63
2019-03-08T20:36:56.686Z,14.98
2019-03-08T20:39:34.373Z,14.28
2019-03-08T20:42:07.543Z,17.92
2019-03-08T20:44:46.388Z,17.23
2019-03-08T20:47:22.720Z,17.05
2019-03-08T20:49:51.296Z,20.97
2019-03-08T20:52:20.123Z,17.37
2019-03-08T20:54:48.792Z,20.92
2019-03-08T20:57:17.506Z,21.42
2019-03-08T20:59:46.075Z,20.10
2019-03-08T21:02:14.770Z,19.77
2019-03-08T21:04:43.403Z,17.45
2019-03-08T21:07:31.301Z,19.67
2019-03-08T21:09:59.862Z,20.77
2019-03-08T21:12:28.493Z,19.55
2019-03-08T21:14:57.062Z,19.98
2019-03-08T21:17:25.562Z,22.98
2019-03-08T21:19:54.019Z,22.90
2019-03-08T21:22:41.864Z,24.40
2019-03-08T21:25:14.846Z,25.48
2019-03-08T21:27:43.377Z,31.95
2019-03-08T21:30:17.822Z,26.62
2019-03-08T21:32:46.492Z,28.35
2019-03-08T21:35:15.192Z,25.55
2019-03-08T21:37:44.124Z,29.67
2019-03-08T21:40:13.615Z,23.70
2019-03-08T21:42:42.216Z,25.88
2019-03-08T21:45:15.691Z,25.37
2019-03-08T21:47:44.368Z,24.72
2019-03-08T21:50:17.399Z,29.57
2019-03-08T21:52:45.957Z,30.97
2019-03-08T21:55:14.560Z,27.90
2019-03-08T21:57:43.228Z,27.58
2019-03-08T22:00:23.540Z,32.05
2019-03-08T22:02:52.815Z,21.77
2019-03-08T22:05:23.160Z,20.37
2019-03-08T22:07:51.724Z,18.50
2019-03-08T22:10:21.979Z,18.80
2019-03-08T22:12:50.431Z,19.98
2019-03-08T22:15:19.153Z,24.82
2019-03-08T22:17:47.685Z,25.00
2019-03-08T22:20:16.283Z,20.32
2019-03-08T22:22:44.847Z,18.48
2019-03-08T22:25:13.665Z,17.77
2019-03-08T22:27:42.413Z,18.87
2019-03-08T22:30:19.102Z,21.93
2019-03-08T22:32:47.629Z,18.02
2019-03-08T22:35:16.079Z,22.17
2019-03-08T22:37:44.840Z,23.22
2019-03-08T22:40:13.452Z,19.37
2019-03-08T22:42:41.996Z,19.52
2019-03-08T22:45:12.492Z,21.25
2019-03-08T22:47:41.091Z,17.75
2019-03-08T22:50:14.664Z,16.07
2019-03-08T22:52:43.286Z,13.72
2019-03-08T22:55:13.779Z,17.20
2019-03-08T22:57:42.327Z,16.05
2019-03-08T23:00:27.354Z,15.88
2019-03-08T23:02:55.893Z,18.07
2019-03-08T23:05:25.107Z,19.57
2019-03-08T23:07:54.031Z,17.10
2019-03-08T23:10:22.699Z,17.82
2019-03-08T23:12:51.154Z,16.95
2019-03-08T23:15:20.049Z,19.87
2019-03-08T23:17:48.574Z,22.98
2019-03-08T23:20:17.099Z,23.92
2019-03-08T23:22:45.665Z,22.73
2019-03-08T23:25:14.210Z,22.67
2019-03-08T23:27:47.344Z,21.40
2019-03-08T23:30:20.189Z,17.75
2019-03-08T23:32:48.787Z,19.30
2019-03-08T23:35:17.382Z,17.35
2019-03-08T23:37:45.871Z,19.80
2019-03-08T23:40:33.955Z,22.70
2019-03-08T23:43:02.519Z,19.05
2019-03-08T23:45:30.989Z,19.77
2019-03-08T23:48:00.495Z,23.73
2019-03-08T23:50:29.060Z,25.45
2019-03-08T23:52:57.640Z,28.20
2019-03-08T23:55:26.211Z,26.68
2019-03-08T23:57:54.776Z,29.42
